Time;durP1;ratioP1;P1;durP2;ratioP2;P2;SDS_P1;SDS_P2;PMS_P1;PMS_P2;Temp;Humidity;BMP_temperature;BMP_pressure;BME280_temperature;BME280_humidity;BME280_pressure;Samples;Min_cycle;Max_cycle;Signal;HPM_P1;HPM_P2
2022/05/01 02:56:35;;;;;;;;;;;;;;;;;;334957;29;1772;-72
2022/05/01 02:56:45;;;;;;;;;;;;;;;;;;340614;29;1043;-72
2022/05/01 02:56:55;;;;;;;;;;;;;;;;;;340627;29;881;-72
2022/05/01 02:57:06;;;;;;;;;;;;;;;;;;339278;29;1475;-72
2022/05/01 02:57:17;;;;;;;;;;;;;;;;;;338647;29;1789;-72
2022/05/01 02:57:27;;;;;;;;;;;;;;;;;;339323;29;918;-72
2022/05/01 02:57:38;;;;;;;;;;;;;;;;;;339316;29;979;-72
2022/05/01 02:57:48;;;;;;;;;;;;;;;;;;339317;29;868;-72
2022/05/01 02:57:58;;;;;;;;;;;;;;;;;;339336;29;917;-72
2022/05/01 02:58:08;;;;;;;;;;;;;;;;;;340515;29;913;-72
2022/05/01 02:58:18;;;;;;;;;;;;;;;;;;340608;29;929;-72
2022/05/01 02:58:29;;;;;;;;;;;;;;;;;;340564;29;1981;-72
2022/05/01 02:58:40;;;;;;;;;;;;;;;;;;340661;29;953;-72
2022/05/01 02:58:50;;;;;;;;;;;;;;;;;;340649;29;906;-72
2022/05/01 02:59:00;;;;;;;;;;;;;;;;;;340639;29;981;-72
2022/05/01 02:59:10;;;;;;;;;;;;;;;;;;340491;29;956;-72
2022/05/01 02:59:20;;;;;;;;;;;;;;;;;;340594;29;1323;-72
2022/05/01 02:59:31;;;;;;;;;;;;;;;;;;340668;29;894;-72
2022/05/01 02:59:41;;;;;;;;;;;;;;;;;;340623;29;1183;-72
2022/05/01 02:59:51;;;;;;;;;;;;;;;;;;340563;29;1037;-73
2022/05/01 03:00:04;;;;;;;;;;;;;;;;;;340623;29;957;-72
2022/05/01 03:00:18;;;;;;;;;;;;;;;;;;340615;29;973;-72
2022/05/01 03:00:28;;;;;;;;;;;;;;;;;;340681;29;1012;-72
2022/05/01 03:00:38;;;;;;;;;;;;;;;;;;340576;29;830;-72
2022/05/01 03:00:48;;;;;;;;;;;;;;;;;;340627;29;1000;-72
2022/05/01 03:00:59;;;;;;;;;;;;;;;;;;340669;29;771;-72
2022/05/01 03:01:10;;;;;;;;;;;;;;;;;;340596;29;996;-72
2022/05/01 03:01:20;;;;;;;;;;;;;;;;;;340435;29;910;-72
2022/05/01 03:01:40;;;;;;;;;;;;;;;;;;340209;29;1141;-72
2022/05/01 03:01:50;;;;;;;;;;;;;;;;;;340096;29;1527;-72
2022/05/01 03:02:00;;;;;;;;;;;;;;;;;;339757;29;1025;-72
2022/05/01 03:02:11;;;;;;;;;;;;;;;;;;340657;29;977;-72
2022/05/01 03:02:21;;;;;;;;;;;;;;;;;;340588;29;1016;-72
2022/05/01 03:02:32;;;;;;;;;;;;;;;;;;340562;29;981;-72
2022/05/01 03:02:46;;;;;;;;;;;;;;;;;;340645;29;1009;-72
2022/05/01 03:02:56;;;;;;;;;;;;;;;;;;340596;29;854;-72
2022/05/01 03:03:06;;;;;;;;;;;;;;;;;;340581;29;953;-72
2022/05/01 03:03:17;;;;;;;;;;;;;;;;;;340486;29;929;-72
2022/05/01 03:03:27;;;;;;;;;;;;;;;;;;340483;29;905;-72
2022/05/01 03:03:38;;;;;;;;;;;;;;;;;;339703;29;1307;-72
2022/05/01 03:03:48;;;;;;;;;;;;;;;;;;339286;29;921;-72
2022/05/01 03:03:58;;;;;;;;;;;;;;;;;;339204;29;886;-72
2022/05/01 03:04:08;;;;;;;;;;;;;;;;;;340374;29;945;-72
2022/05/01 03:04:18;;;;;;;;;;;;;;;;;;340529;29;949;-72
2022/05/01 03:04:29;;;;;;;;;;;;;;;;;;340487;29;1041;-72
2022/05/01 03:04:40;;;;;;;;;;;;;;;;;;340474;29;1038;-73
2022/05/01 03:04:50;;;;;;;;;;;;;;;;;;340672;29;795;-72
2022/05/01 03:05:01;;;;;;;;;;;;;;;;;;340428;29;1025;-72
2022/05/01 03:05:11;;;;;;;;;;;;;;;;;;340679;29;787;-72
2022/05/01 03:05:24;;;;;;;;;;;;;;;;;;340527;29;973;-72
2022/05/01 03:05:34;;;;;;;;;;;;;;;;;;340645;29;969;-72
2022/05/01 03:05:44;;;;;;;;;;;;;;;;;;340660;29;945;-72
2022/05/01 03:05:56;;;;;;;;;;;;;;;;;;340459;29;1140;-72
2022/05/01 03:06:06;;;;;;;;;;;;;;;;;;340566;29;937;-72
2022/05/01 03:06:17;;;;;;;;;;;;;;;;;;340654;29;933;-72
2022/05/01 03:06:27;;;;;;;;;;;;;;;;;;340524;29;893;-72
2022/05/01 03:06:37;;;;;;;;;;;;;;;;;;340619;29;922;-72
2022/05/01 03:06:48;;;;;;;;;;;;;;;;;;340542;29;892;-72
2022/05/01 03:06:59;;;;;;;;;;;;;;;;;;340448;29;1030;-72
2022/05/01 03:07:09;;;;;;;;;;;;;;;;;;340629;29;922;-72
2022/05/01 03:07:19;;;;;;;;;;;;;;;;;;340667;29;992;-72
2022/05/01 03:07:29;;;;;;;;;;;;;;;;;;340515;29;917;-72
2022/05/01 03:07:39;;;;;;;;;;;;;;;;;;340638;29;992;-72
2022/05/01 03:07:50;;;;;;;;;;;;;;;;;;340633;29;985;-72
2022/05/01 03:08:00;;;;;;;;;;;;;;;;;;340643;29;917;-72
2022/05/01 03:08:12;;;;;;;;;;;;;;;;;;340602;29;937;-72
2022/05/01 03:08:23;;;;;;;;;;;;;;;;;;340650;29;972;-72
2022/05/01 03:08:33;;;;;;;;;;;;;;;;;;340668;29;850;-72
2022/05/01 03:08:44;;;;;;;;;;;;;;;;;;340616;29;1147;-72
2022/05/01 03:08:54;;;;;;;;;;;;;;;;;;339711;29;1404;-72
2022/05/01 03:09:05;;;;;;;;;;;;;;;;;;340080;29;1452;-72
2022/05/01 03:09:15;;;;;;;;;;;;;;;;;;340632;29;925;-72
2022/05/01 03:09:25;;;;;;;;;;;;;;;;;;340615;29;929;-72
2022/05/01 03:09:35;;;;;;;;;;;;;;;;;;340496;29;976;-72
2022/05/01 03:09:45;;;;;;;;;;;;;;;;;;340610;29;1148;-72
2022/05/01 03:09:56;;;;;;;;;;;;;;;;;;340440;29;873;-72
2022/05/01 03:10:07;;;;;;;;;;;;;;;;;;340486;29;985;-72
2022/05/01 03:10:17;;;;;;;;;;;;;;;;;;340454;29;929;-72
2022/05/01 03:10:27;;;;;;;;;;;;;;;;;;340579;29;921;-72
2022/05/01 03:10:38;;;;;;;;;;;;;;;;;;339624;29;1002;-72
2022/05/01 03:10:48;;;;;;;;;;;;;;;;;;339340;29;989;-72
2022/05/01 03:10:59;;;;;;;;;;;;;;;;;;339350;29;917;-72
2022/05/01 03:11:09;;;;;;;;;;;;;;;;;;340529;29;785;-72
2022/05/01 03:11:19;;;;;;;;;;;;;;;;;;340589;29;910;-72
2022/05/01 03:11:29;;;;;;;;;;;;;;;;;;340610;29;902;-72
2022/05/01 03:11:39;;;;;;;;;;;;;;;;;;340616;29;854;-72
2022/05/01 03:11:49;;;;;;;;;;;;;;;;;;340548;29;933;-72
2022/05/01 03:12:01;;;;;;;;;;;;;;;;;;340615;29;921;-72
2022/05/01 03:12:11;;;;;;;;;;;;;;;;;;340563;29;1286;-72
2022/05/01 03:12:22;;;;;;;;;;;;;;;;;;340591;29;878;-72
2022/05/01 03:12:32;;;;;;;;;;;;;;;;;;340550;29;961;-72
2022/05/01 03:12:42;;;;;;;;;;;;;;;;;;340645;29;925;-72
2022/05/01 03:12:52;;;;;;;;;;;;;;;;;;340564;29;1108;-73
2022/05/01 03:13:03;;;;;;;;;;;;;;;;;;340645;29;984;-72
2022/05/01 03:13:13;;;;;;;;;;;;;;;;;;340441;29;1001;-73
2022/05/01 03:13:24;;;;;;;;;;;;;;;;;;340586;29;941;-72
2022/05/01 03:13:34;;;;;;;;;;;;;;;;;;340610;29;925;-72
2022/05/01 03:13:44;;;;;;;;;;;;;;;;;;340576;29;988;-73
2022/05/01 03:13:55;;;;;;;;;;;;;;;;;;340590;29;993;-72
2022/05/01 03:14:09;;;;;;;;;;;;;;;;;;340613;29;1013;-72
2022/05/01 03:14:19;;;;;;;;;;;;;;;;;;340605;29;922;-72
2022/05/01 03:14:30;;;;;;;;;;;;;;;;;;340571;29;914;-72
2022/05/01 03:14:40;;;;;;;;;;;;;;;;;;340646;29;789;-72
2022/05/01 03:14:50;;;;;;;;;;;;;;;;;;340652;29;791;-72
2022/05/01 03:15:02;;;;;;;;;;;;;;;;;;339263;29;1340;-72
2022/05/01 03:15:12;;;;;;;;;;;;;;;;;;340571;29;1781;-72
2022/05/01 03:15:24;;;;;;;;;;;;;;;;;;340460;29;906;-72
2022/05/01 03:15:34;;;;;;;;;;;;;;;;;;339289;29;980;-72
2022/05/01 03:15:45;;;;;;;;;;;;;;;;;;339209;29;930;-72
2022/05/01 03:15:55;;;;;;;;;;;;;;;;;;339271;29;918;-72
2022/05/01 03:16:06;;;;;;;;;;;;;;;;;;339329;29;848;-72
2022/05/01 03:16:16;;;;;;;;;;;;;;;;;;339338;29;937;-73
2022/05/01 03:16:26;;;;;;;;;;;;;;;;;;339275;29;883;-72
2022/05/01 03:16:36;;;;;;;;;;;;;;;;;;339090;29;1211;-72
2022/05/01 03:16:46;;;;;;;;;;;;;;;;;;339342;29;859;-73
2022/05/01 03:16:57;;;;;;;;;;;;;;;;;;339315;29;937;-72
2022/05/01 03:17:07;;;;;;;;;;;;;;;;;;339290;29;922;-72
2022/05/01 03:17:17;;;;;;;;;;;;;;;;;;339138;29;1138;-72
2022/05/01 03:22:10;;;;;;;;;;;;;;;;;;339315;29;773;-72
2022/05/01 03:22:17;;;;;;;;;;;;;;;;;;339300;29;933;-72
2022/05/01 03:22:27;;;;;;;;;;;;;;;;;;339204;29;1655;-71
2022/05/01 03:22:38;;;;;;;;;;;;;;;;;;338619;29;1747;-72
2022/05/01 03:22:48;;;;;;;;;;;;;;;;;;339263;29;830;-72
2022/05/01 03:22:58;;;;;;;;;;;;;;;;;;339248;29;977;-72
2022/05/01 03:23:08;;;;;;;;;;;;;;;;;;340473;29;950;-72
2022/05/01 03:23:19;;;;;;;;;;;;;;;;;;340623;29;910;-72
2022/05/01 03:23:29;;;;;;;;;;;;;;;;;;340162;29;1373;-72
2022/05/01 03:23:40;;;;;;;;;;;;;;;;;;340289;29;910;-72
2022/05/01 03:23:50;;;;;;;;;;;;;;;;;;340620;29;826;-73
2022/05/01 03:24:00;;;;;;;;;;;;;;;;;;340593;29;917;-72
2022/05/01 03:24:10;;;;;;;;;;;;;;;;;;340580;29;792;-73
2022/05/01 03:24:20;;;;;;;;;;;;;;;;;;340570;29;973;-72
2022/05/01 03:24:31;;;;;;;;;;;;;;;;;;340617;29;800;-72
2022/05/01 03:24:42;;;;;;;;;;;;;;;;;;340464;29;1256;-72
2022/05/01 03:24:52;;;;;;;;;;;;;;;;;;340594;29;791;-72
2022/05/01 03:25:02;;;;;;;;;;;;;;;;;;340524;29;906;-72
2022/05/01 03:25:13;;;;;;;;;;;;;;;;;;340613;29;799;-73
2022/05/01 03:25:23;;;;;;;;;;;;;;;;;;340602;29;902;-73
2022/05/01 03:25:33;;;;;;;;;;;;;;;;;;340583;29;997;-72
2022/05/01 03:25:43;;;;;;;;;;;;;;;;;;340578;29;981;-72
2022/05/01 03:25:53;;;;;;;;;;;;;;;;;;340576;29;902;-72
2022/05/01 03:26:04;;;;;;;;;;;;;;;;;;340545;29;1024;-72
2022/05/01 03:26:18;;;;;;;;;;;;;;;;;;340564;29;1056;-72
2022/05/01 03:26:28;;;;;;;;;;;;;;;;;;340630;29;949;-72
2022/05/01 03:26:38;;;;;;;;;;;;;;;;;;340606;29;942;-72
2022/05/01 03:26:48;;;;;;;;;;;;;;;;;;340395;29;1180;-73
2022/05/01 03:26:58;;;;;;;;;;;;;;;;;;340611;29;969;-72
2022/05/01 03:27:10;;;;;;;;;;;;;;;;;;340567;29;777;-73
2022/05/01 03:27:20;;;;;;;;;;;;;;;;;;340642;29;933;-73
2022/05/01 03:27:30;;;;;;;;;;;;;;;;;;340601;29;957;-73
2022/05/01 03:27:40;;;;;;;;;;;;;;;;;;340569;29;884;-72
2022/05/01 03:27:50;;;;;;;;;;;;;;;;;;340576;29;977;-73
2022/05/01 03:28:01;;;;;;;;;;;;;;;;;;340605;29;945;-72
2022/05/01 03:28:11;;;;;;;;;;;;;;;;;;340575;29;1002;-72
2022/05/01 03:28:21;;;;;;;;;;;;;;;;;;340552;29;863;-73
2022/05/01 03:28:32;;;;;;;;;;;;;;;;;;340533;29;925;-73
2022/05/01 03:28:43;;;;;;;;;;;;;;;;;;340634;29;1009;-72
2022/05/01 03:28:54;;;;;;;;;;;;;;;;;;340612;29;945;-72
2022/05/01 03:29:04;;;;;;;;;;;;;;;;;;340595;29;918;-72
2022/05/01 03:29:15;;;;;;;;;;;;;;;;;;339644;29;1315;-72
2022/05/01 03:29:25;;;;;;;;;;;;;;;;;;339301;29;985;-73
2022/05/01 03:29:37;;;;;;;;;;;;;;;;;;339333;29;965;-72
2022/05/01 03:30:15;;;;;;;;;;;;;;;;;;339309;29;981;-72
2022/05/01 03:30:17;;;;;;;;;;;;;;;;;;339052;29;1010;-73
2022/05/01 03:30:27;;;;;;;;;;;;;;;;;;339313;29;989;-72
2022/05/01 03:30:38;;;;;;;;;;;;;;;;;;339314;29;954;-72
2022/05/01 03:30:48;;;;;;;;;;;;;;;;;;339278;29;906;-73
2022/05/01 03:30:58;;;;;;;;;;;;;;;;;;339261;29;791;-72
2022/05/01 03:31:09;;;;;;;;;;;;;;;;;;339277;29;926;-72
2022/05/01 03:31:20;;;;;;;;;;;;;;;;;;339039;29;1659;-72
2022/05/01 03:31:30;;;;;;;;;;;;;;;;;;340608;29;830;-72
2022/05/01 03:31:40;;;;;;;;;;;;;;;;;;340581;29;901;-72
2022/05/01 03:31:51;;;;;;;;;;;;;;;;;;340573;29;910;-72
2022/05/01 03:32:02;;;;;;;;;;;;;;;;;;340647;29;1702;-72
2022/05/01 03:32:12;;;;;;;;;;;;;;;;;;340637;29;858;-73
2022/05/01 03:32:22;;;;;;;;;;;;;;;;;;340473;29;922;-72
2022/05/01 03:32:32;;;;;;;;;;;;;;;;;;339464;29;1508;-72
2022/05/01 03:32:43;;;;;;;;;;;;;;;;;;340902;29;906;-72
2022/05/01 03:32:53;;;;;;;;;;;;;;;;;;341910;29;921;-72
2022/05/01 03:33:06;;;;;;;;;;;;;;;;;;341867;29;909;-73
2022/05/01 03:33:21;;;;;;;;;;;;;;;;;;341930;29;949;-73
2022/05/01 03:33:32;;;;;;;;;;;;;;;;;;341960;29;925;-73
2022/05/01 03:33:42;;;;;;;;;;;;;;;;;;341855;29;1000;-73
2022/05/01 03:33:53;;;;;;;;;;;;;;;;;;341885;29;895;-72
2022/05/01 03:34:04;;;;;;;;;;;;;;;;;;341945;29;869;-72
2022/05/01 03:34:14;;;;;;;;;;;;;;;;;;341939;29;866;-72
2022/05/01 03:34:26;;;;;;;;;;;;;;;;;;341387;29;1378;-72
2022/05/01 03:34:37;;;;;;;;;;;;;;;;;;341684;29;1255;-72
2022/05/01 03:34:48;;;;;;;;;;;;;;;;;;341935;29;905;-72
2022/05/01 03:34:58;;;;;;;;;;;;;;;;;;341906;29;874;-72
2022/05/01 03:35:08;;;;;;;;;;;;;;;;;;341880;29;827;-72
2022/05/01 03:35:19;;;;;;;;;;;;;;;;;;341896;29;973;-72
2022/05/01 03:35:29;;;;;;;;;;;;;;;;;;341941;29;905;-72
2022/05/01 03:35:40;;;;;;;;;;;;;;;;;;341905;29;973;-72
2022/05/01 03:35:50;;;;;;;;;;;;;;;;;;341910;29;850;-72
2022/05/01 03:36:04;;;;;;;;;;;;;;;;;;341860;29;922;-72
2022/05/01 03:36:14;;;;;;;;;;;;;;;;;;341933;29;1012;-72
2022/05/01 03:36:26;;;;;;;;;;;;;;;;;;341936;29;1000;-72
2022/05/01 03:36:36;;;;;;;;;;;;;;;;;;341870;29;802;-73
2022/05/01 03:36:47;;;;;;;;;;;;;;;;;;341854;29;910;-72
2022/05/01 03:36:57;;;;;;;;;;;;;;;;;;341820;29;819;-72
2022/05/01 03:37:07;;;;;;;;;;;;;;;;;;341932;28;910;-72
2022/05/01 03:37:18;;;;;;;;;;;;;;;;;;341977;29;889;-72
2022/05/01 03:37:29;;;;;;;;;;;;;;;;;;341937;29;902;-73
2022/05/01 03:37:39;;;;;;;;;;;;;;;;;;341866;29;930;-72
2022/05/01 03:37:50;;;;;;;;;;;;;;;;;;341914;29;854;-73
2022/05/01 03:38:01;;;;;;;;;;;;;;;;;;341881;29;1020;-72
2022/05/01 03:38:11;;;;;;;;;;;;;;;;;;341941;29;913;-73
2022/05/01 03:38:22;;;;;;;;;;;;;;;;;;341920;29;984;-72
2022/05/01 03:38:36;;;;;;;;;;;;;;;;;;341833;29;1911;-72
2022/05/01 03:38:47;;;;;;;;;;;;;;;;;;341847;29;913;-72
2022/05/01 03:38:57;;;;;;;;;;;;;;;;;;341929;29;913;-72
2022/05/01 03:39:08;;;;;;;;;;;;;;;;;;341882;29;863;-73
2022/05/01 03:39:19;;;;;;;;;;;;;;;;;;341846;29;922;-73
2022/05/01 03:39:29;;;;;;;;;;;;;;;;;;341953;29;921;-72
2022/05/01 03:39:40;;;;;;;;;;;;;;;;;;341878;29;856;-72
2022/05/01 03:39:50;;;;;;;;;;;;;;;;;;341913;29;925;-73
2022/05/01 03:40:00;;;;;;;;;;;;;;;;;;341865;29;779;-72
2022/05/01 03:40:12;;;;;;;;;;;;;;;;;;341853;29;933;-73
2022/05/01 03:40:23;;;;;;;;;;;;;;;;;;341925;29;930;-73
2022/05/01 03:40:35;;;;;;;;;;;;;;;;;;341973;29;803;-73
2022/05/01 03:40:47;;;;;;;;;;;;;;;;;;341792;29;980;-72
2022/05/01 03:40:57;;;;;;;;;;;;;;;;;;341917;29;917;-72
2022/05/01 03:41:13;;;;;;;;;;;;;;;;;;341871;29;870;-73
2022/05/01 03:41:26;;;;;;;;;;;;;;;;;;341907;29;842;-72
2022/05/01 03:41:36;;;;;;;;;;;;;;;;;;341866;29;949;-72
2022/05/01 03:41:46;;;;;;;;;;;;;;;;;;341908;29;992;-72
2022/05/01 03:41:57;;;;;;;;;;;;;;;;;;341876;29;1060;-72
2022/05/01 03:42:07;;;;;;;;;;;;;;;;;;341871;29;918;-73
2022/05/01 03:42:17;;;;;;;;;;;;;;;;;;341923;29;910;-72
2022/05/01 03:42:28;;;;;;;;;;;;;;;;;;339661;29;1638;-72
2022/05/01 03:42:38;;;;;;;;;;;;;;;;;;340186;29;976;-72
2022/05/01 03:42:49;;;;;;;;;;;;;;;;;;340536;29;977;-72
2022/05/01 03:42:59;;;;;;;;;;;;;;;;;;340569;29;946;-72
2022/05/01 03:43:09;;;;;;;;;;;;;;;;;;339808;29;1537;-72
2022/05/01 03:43:19;;;;;;;;;;;;;;;;;;340502;29;996;-72
2022/05/01 03:43:30;;;;;;;;;;;;;;;;;;340641;29;910;-72
2022/05/01 03:43:41;;;;;;;;;;;;;;;;;;340544;29;859;-72
2022/05/01 03:43:51;;;;;;;;;;;;;;;;;;340628;29;917;-72
2022/05/01 03:44:01;;;;;;;;;;;;;;;;;;340607;29;815;-72
2022/05/01 03:44:12;;;;;;;;;;;;;;;;;;340517;29;1191;-73
2022/05/01 03:44:22;;;;;;;;;;;;;;;;;;340591;29;854;-72
2022/05/01 03:44:32;;;;;;;;;;;;;;;;;;340602;29;930;-72
2022/05/01 03:44:42;;;;;;;;;;;;;;;;;;340596;29;881;-72
2022/05/01 03:44:53;;;;;;;;;;;;;;;;;;340548;29;977;-73
2022/05/01 03:45:03;;;;;;;;;;;;;;;;;;340545;29;906;-72
2022/05/01 03:45:13;;;;;;;;;;;;;;;;;;340524;29;850;-73
2022/05/01 03:45:23;;;;;;;;;;;;;;;;;;340562;29;902;-72
2022/05/01 03:45:34;;;;;;;;;;;;;;;;;;340575;29;1106;-72
2022/05/01 03:45:44;;;;;;;;;;;;;;;;;;340604;29;810;-72
2022/05/01 03:45:55;;;;;;;;;;;;;;;;;;340573;29;882;-72
2022/05/01 03:46:06;;;;;;;;;;;;;;;;;;340574;29;981;-72
2022/05/01 03:46:16;;;;;;;;;;;;;;;;;;340559;29;909;-72
2022/05/01 03:46:26;;;;;;;;;;;;;;;;;;339571;29;1492;-72
2022/05/01 03:46:38;;;;;;;;;;;;;;;;;;339245;29;985;-73
2022/05/01 03:46:49;;;;;;;;;;;;;;;;;;339251;29;926;-72
2022/05/01 03:46:59;;;;;;;;;;;;;;;;;;339240;29;926;-72
2022/05/01 03:47:09;;;;;;;;;;;;;;;;;;339117;29;1019;-72
2022/05/01 03:47:19;;;;;;;;;;;;;;;;;;339232;29;926;-72
2022/05/01 03:47:29;;;;;;;;;;;;;;;;;;339300;29;941;-72
2022/05/01 03:47:40;;;;;;;;;;;;;;;;;;338937;29;1469;-72
2022/05/01 03:47:50;;;;;;;;;;;;;;;;;;341906;29;1035;-72
2022/05/01 03:48:01;;;;;;;;;;;;;;;;;;341868;29;806;-72
2022/05/01 03:48:11;;;;;;;;;;;;;;;;;;341872;29;961;-72
2022/05/01 03:48:22;;;;;;;;;;;;;;;;;;341919;29;945;-73
2022/05/01 03:48:32;;;;;;;;;;;;;;;;;;341922;29;900;-72
2022/05/01 03:48:42;;;;;;;;;;;;;;;;;;341724;29;976;-73
2022/05/01 03:48:53;;;;;;;;;;;;;;;;;;341908;29;984;-72
2022/05/01 03:49:03;;;;;;;;;;;;;;;;;;341863;29;980;-72
2022/05/01 03:49:13;;;;;;;;;;;;;;;;;;341839;29;961;-73
2022/05/01 03:49:23;;;;;;;;;;;;;;;;;;341854;29;909;-72
2022/05/01 03:49:33;;;;;;;;;;;;;;;;;;341951;29;772;-72
2022/05/01 03:49:43;;;;;;;;;;;;;;;;;;341883;29;938;-73
2022/05/01 03:49:54;;;;;;;;;;;;;;;;;;341918;29;902;-73
2022/05/01 03:50:05;;;;;;;;;;;;;;;;;;341809;29;918;-72
2022/05/01 03:50:15;;;;;;;;;;;;;;;;;;341894;29;969;-72
2022/05/01 03:50:25;;;;;;;;;;;;;;;;;;341909;29;793;-73
2022/05/01 03:50:35;;;;;;;;;;;;;;;;;;341951;29;880;-72
2022/05/01 03:50:46;;;;;;;;;;;;;;;;;;341756;29;985;-73
2022/05/01 03:50:56;;;;;;;;;;;;;;;;;;341888;29;937;-73
2022/05/01 03:51:07;;;;;;;;;;;;;;;;;;341803;29;936;-72
2022/05/01 03:51:18;;;;;;;;;;;;;;;;;;341817;29;977;-73
2022/05/01 03:51:31;;;;;;;;;;;;;;;;;;341927;29;874;-72
2022/05/01 03:51:42;;;;;;;;;;;;;;;;;;341957;29;799;-72
2022/05/01 03:51:52;;;;;;;;;;;;;;;;;;341874;29;913;-72
2022/05/01 03:52:03;;;;;;;;;;;;;;;;;;341907;29;976;-73
2022/05/01 03:52:13;;;;;;;;;;;;;;;;;;339511;29;1622;-72
2022/05/01 03:52:23;;;;;;;;;;;;;;;;;;340282;29;1073;-72
2022/05/01 03:52:33;;;;;;;;;;;;;;;;;;340601;29;914;-72
2022/05/01 03:52:44;;;;;;;;;;;;;;;;;;340538;29;1025;-72
2022/05/01 03:52:54;;;;;;;;;;;;;;;;;;340495;29;1013;-72
2022/05/01 03:53:05;;;;;;;;;;;;;;;;;;340574;29;858;-72
2022/05/01 03:53:15;;;;;;;;;;;;;;;;;;340536;29;966;-73
2022/05/01 03:53:26;;;;;;;;;;;;;;;;;;340465;29;1048;-72
2022/05/01 03:53:36;;;;;;;;;;;;;;;;;;340542;29;970;-73
2022/05/01 03:53:47;;;;;;;;;;;;;;;;;;340591;29;955;-72
2022/05/01 03:54:02;;;;;;;;;;;;;;;;;;340500;29;828;-72
2022/05/01 03:54:12;;;;;;;;;;;;;;;;;;340581;29;937;-73
2022/05/01 03:54:24;;;;;;;;;;;;;;;;;;340522;29;941;-72
2022/05/01 03:54:34;;;;;;;;;;;;;;;;;;340536;29;969;-73
2022/05/01 03:54:44;;;;;;;;;;;;;;;;;;340550;29;918;-72
2022/05/01 03:54:55;;;;;;;;;;;;;;;;;;340559;29;985;-73
2022/05/01 03:55:05;;;;;;;;;;;;;;;;;;340559;29;1012;-73
2022/05/01 03:55:15;;;;;;;;;;;;;;;;;;340600;29;882;-72
2022/05/01 03:55:26;;;;;;;;;;;;;;;;;;340491;29;925;-72
2022/05/01 03:55:36;;;;;;;;;;;;;;;;;;340545;29;1021;-72
2022/05/01 03:55:47;;;;;;;;;;;;;;;;;;340502;29;941;-72
2022/05/01 03:55:58;;;;;;;;;;;;;;;;;;340080;29;1372;-72
2022/05/01 03:56:10;;;;;;;;;;;;;;;;;;340198;29;1503;-72
2022/05/01 03:56:20;;;;;;;;;;;;;;;;;;339988;29;1511;-72
2022/05/01 03:56:32;;;;;;;;;;;;;;;;;;340316;29;971;-72
2022/05/01 03:56:43;;;;;;;;;;;;;;;;;;340573;29;925;-72
2022/05/01 03:56:53;;;;;;;;;;;;;;;;;;340579;29;953;-73
2022/05/01 03:57:04;;;;;;;;;;;;;;;;;;340398;29;1128;-73
2022/05/01 03:57:14;;;;;;;;;;;;;;;;;;340514;29;926;-72
2022/05/01 03:57:24;;;;;;;;;;;;;;;;;;340522;29;1008;-72
2022/05/01 03:57:34;;;;;;;;;;;;;;;;;;340545;29;922;-72
2022/05/01 03:57:45;;;;;;;;;;;;;;;;;;340565;29;945;-72
2022/05/01 03:57:55;;;;;;;;;;;;;;;;;;340523;29;933;-73
2022/05/01 03:58:05;;;;;;;;;;;;;;;;;;340557;29;918;-72
2022/05/01 03:58:15;;;;;;;;;;;;;;;;;;340581;29;847;-72
2022/05/01 03:58:25;;;;;;;;;;;;;;;;;;340552;29;925;-72
2022/05/01 03:58:36;;;;;;;;;;;;;;;;;;340423;29;1915;-72
2022/05/01 03:58:46;;;;;;;;;;;;;;;;;;340552;29;950;-73
2022/05/01 03:58:56;;;;;;;;;;;;;;;;;;340526;29;777;-72
2022/05/01 03:59:07;;;;;;;;;;;;;;;;;;340564;29;961;-72
2022/05/01 03:59:17;;;;;;;;;;;;;;;;;;340530;29;969;-72
2022/05/01 03:59:30;;;;;;;;;;;;;;;;;;340549;29;813;-73
2022/05/01 03:59:40;;;;;;;;;;;;;;;;;;340255;29;819;-72
2022/05/01 03:59:50;;;;;;;;;;;;;;;;;;339716;29;2070;-72
2022/05/01 04:00:00;;;;;;;;;;;;;;;;;;339422;29;1392;-72
2022/05/01 04:00:11;;;;;;;;;;;;;;;;;;339662;29;1622;-72
2022/05/01 04:00:21;;;;;;;;;;;;;;;;;;338659;29;1533;-72
2022/05/01 04:00:31;;;;;;;;;;;;;;;;;;339855;29;1505;-72
2022/05/01 04:00:44;;;;;;;;;;;;;;;;;;340298;29;938;-72
2022/05/01 04:00:54;;;;;;;;;;;;;;;;;;339559;29;1758;-72
2022/05/01 04:01:05;;;;;;;;;;;;;;;;;;340552;29;929;-72
2022/05/01 04:01:15;;;;;;;;;;;;;;;;;;340531;29;1185;-72
2022/05/01 04:01:26;;;;;;;;;;;;;;;;;;340517;29;981;-72
2022/05/01 04:01:36;;;;;;;;;;;;;;;;;;339693;29;1619;-72
2022/05/01 04:01:46;;;;;;;;;;;;;;;;;;340334;29;1568;-72
2022/05/01 04:01:56;;;;;;;;;;;;;;;;;;339775;29;1762;-72
2022/05/01 04:02:07;;;;;;;;;;;;;;;;;;338986;29;1738;-72
2022/05/01 04:02:17;;;;;;;;;;;;;;;;;;339726;29;1670;-72
2022/05/01 04:02:27;;;;;;;;;;;;;;;;;;339593;29;1642;-72
2022/05/01 04:02:42;;;;;;;;;;;;;;;;;;340479;29;1009;-72
2022/05/01 04:02:53;;;;;;;;;;;;;;;;;;340505;29;941;-72
2022/05/01 04:03:03;;;;;;;;;;;;;;;;;;339774;29;1369;-72
2022/05/01 04:03:14;;;;;;;;;;;;;;;;;;340570;29;783;-72
2022/05/01 04:03:25;;;;;;;;;;;;;;;;;;339104;29;1429;-72
2022/05/01 04:03:36;;;;;;;;;;;;;;;;;;339042;29;1524;-72
2022/05/01 04:03:46;;;;;;;;;;;;;;;;;;340151;29;1529;-72
2022/05/01 04:03:56;;;;;;;;;;;;;;;;;;340611;29;866;-73
2022/05/01 04:04:06;;;;;;;;;;;;;;;;;;340469;29;1086;-86
2022/05/01 04:04:19;;;;;;;;;;;;;;;;;;339913;29;1512;-86
2022/05/01 04:04:29;;;;;;;;;;;;;;;;;;339241;29;1707;-87
2022/05/01 04:04:40;;;;;;;;;;;;;;;;;;339304;29;898;-87
2022/05/01 04:04:51;;;;;;;;;;;;;;;;;;339228;29;981;-86
2022/05/01 04:05:02;;;;;;;;;;;;;;;;;;339202;29;1064;-87
2022/05/01 04:05:13;;;;;;;;;;;;;;;;;;339292;29;926;-72
2022/05/01 04:05:23;;;;;;;;;;;;;;;;;;339126;29;922;-72
2022/05/01 04:05:34;;;;;;;;;;;;;;;;;;339379;29;1644;-71
2022/05/01 04:05:44;;;;;;;;;;;;;;;;;;339794;29;1813;-72
2022/05/01 04:05:54;;;;;;;;;;;;;;;;;;339230;29;934;-71
2022/05/01 04:06:05;;;;;;;;;;;;;;;;;;339243;29;922;-71
2022/05/01 04:06:15;;;;;;;;;;;;;;;;;;340216;29;1763;-72
2022/05/01 04:06:25;;;;;;;;;;;;;;;;;;340594;29;914;-72
2022/05/01 04:06:35;;;;;;;;;;;;;;;;;;340493;29;945;-72
2022/05/01 04:06:45;;;;;;;;;;;;;;;;;;340528;29;1005;-72
2022/05/01 04:06:57;;;;;;;;;;;;;;;;;;340589;29;784;-72
2022/05/01 04:07:07;;;;;;;;;;;;;;;;;;339544;29;1606;-71
2022/05/01 04:07:17;;;;;;;;;;;;;;;;;;339983;29;1774;-71
2022/05/01 04:07:27;;;;;;;;;;;;;;;;;;340552;29;977;-72
2022/05/01 04:07:38;;;;;;;;;;;;;;;;;;340508;29;921;-72
2022/05/01 04:07:48;;;;;;;;;;;;;;;;;;339779;29;1395;-71
2022/05/01 04:07:58;;;;;;;;;;;;;;;;;;341863;29;813;-71
2022/05/01 04:08:09;;;;;;;;;;;;;;;;;;340662;29;1402;-71
2022/05/01 04:08:19;;;;;;;;;;;;;;;;;;340253;29;1493;-71
2022/05/01 04:08:29;;;;;;;;;;;;;;;;;;339341;29;2144;-71
2022/05/01 04:08:40;;;;;;;;;;;;;;;;;;340639;29;1344;-71
2022/05/01 04:08:51;;;;;;;;;;;;;;;;;;340320;29;969;-71
2022/05/01 04:09:02;;;;;;;;;;;;;;;;;;339644;29;2014;-71
2022/05/01 04:09:12;;;;;;;;;;;;;;;;;;340528;29;1010;-72
2022/05/01 04:09:24;;;;;;;;;;;;;;;;;;340542;29;973;-71
2022/05/01 04:09:34;;;;;;;;;;;;;;;;;;340525;29;926;-71
2022/05/01 04:09:44;;;;;;;;;;;;;;;;;;339077;29;1388;-71
2022/05/01 04:09:54;;;;;;;;;;;;;;;;;;341198;29;906;-71
2022/05/01 04:10:05;;;;;;;;;;;;;;;;;;341623;29;992;-72
2022/05/01 04:10:15;;;;;;;;;;;;;;;;;;341887;29;852;-71
2022/05/01 04:10:26;;;;;;;;;;;;;;;;;;340563;29;1915;-72
2022/05/01 04:10:41;;;;;;;;;;;;;;;;;;340426;29;1531;-71
2022/05/01 04:10:51;;;;;;;;;;;;;;;;;;339217;29;867;-72
2022/05/01 04:11:02;;;;;;;;;;;;;;;;;;339260;29;908;-72
2022/05/01 04:11:12;;;;;;;;;;;;;;;;;;339214;29;954;-71
2022/05/01 04:11:22;;;;;;;;;;;;;;;;;;339261;29;846;-72
2022/05/01 04:11:33;;;;;;;;;;;;;;;;;;339215;29;1738;-71
2022/05/01 04:11:43;;;;;;;;;;;;;;;;;;339170;29;1013;-71
2022/05/01 04:11:53;;;;;;;;;;;;;;;;;;339279;29;898;-71
2022/05/01 04:12:04;;;;;;;;;;;;;;;;;;339155;29;958;-71
2022/05/01 04:12:15;;;;;;;;;;;;;;;;;;339237;29;937;-72
2022/05/01 04:12:25;;;;;;;;;;;;;;;;;;339239;29;914;-71
2022/05/01 04:12:36;;;;;;;;;;;;;;;;;;339210;29;907;-71
2022/05/01 04:12:46;;;;;;;;;;;;;;;;;;339464;29;1510;-71
2022/05/01 04:12:56;;;;;;;;;;;;;;;;;;340566;29;814;-72
2022/05/01 04:13:07;;;;;;;;;;;;;;;;;;340531;29;881;-71
2022/05/01 04:13:18;;;;;;;;;;;;;;;;;;340548;29;850;-71
2022/05/01 04:13:28;;;;;;;;;;;;;;;;;;340554;29;882;-71
2022/05/01 04:13:38;;;;;;;;;;;;;;;;;;340397;29;1584;-71
2022/05/01 04:13:48;;;;;;;;;;;;;;;;;;339042;29;1788;-71
2022/05/01 04:13:59;;;;;;;;;;;;;;;;;;339117;29;1446;-71
2022/05/01 04:14:11;;;;;;;;;;;;;;;;;;340489;29;949;-72
2022/05/01 04:14:21;;;;;;;;;;;;;;;;;;339521;29;1521;-71
2022/05/01 04:14:32;;;;;;;;;;;;;;;;;;339753;29;1729;-71
2022/05/01 04:14:42;;;;;;;;;;;;;;;;;;339252;29;923;-71
2022/05/01 04:14:52;;;;;;;;;;;;;;;;;;339254;29;958;-72
2022/05/01 04:15:07;;;;;;;;;;;;;;;;;;339422;29;1781;-72
2022/05/01 04:15:17;;;;;;;;;;;;;;;;;;339836;29;1808;-71
2022/05/01 04:15:27;;;;;;;;;;;;;;;;;;340511;29;977;-71
2022/05/01 04:15:37;;;;;;;;;;;;;;;;;;340512;29;1067;-72
2022/05/01 04:15:48;;;;;;;;;;;;;;;;;;339823;29;1650;-71
2022/05/01 04:15:58;;;;;;;;;;;;;;;;;;339855;29;1699;-71
2022/05/01 04:16:08;;;;;;;;;;;;;;;;;;340492;29;902;-71
2022/05/01 04:16:18;;;;;;;;;;;;;;;;;;340530;29;961;-72
2022/05/01 04:16:29;;;;;;;;;;;;;;;;;;340460;29;1041;-71
2022/05/01 04:16:39;;;;;;;;;;;;;;;;;;340359;29;1019;-71
2022/05/01 04:16:50;;;;;;;;;;;;;;;;;;340491;29;781;-72
2022/05/01 04:17:00;;;;;;;;;;;;;;;;;;340489;29;922;-72
2022/05/01 04:17:10;;;;;;;;;;;;;;;;;;340597;29;885;-71
2022/05/01 04:17:20;;;;;;;;;;;;;;;;;;340533;29;985;-71
2022/05/01 04:17:30;;;;;;;;;;;;;;;;;;339776;29;1852;-71